Time;durP1;ratioP1;P1;durP2;ratioP2;P2;SDS_P1;SDS_P2;PMS_P1;PMS_P2;Temp;Humidity;BMP_temperature;BMP_pressure;BME280_temperature;BME280_humidity;BME280_pressure;Samples;Min_cycle;Max_cycle;Signal;HPM_P1;HPM_P2
2024/01/09 11:24:56;;;;;;;191.80;97.60;;;;;;;-5.66;61.11;98762.35;103072;1286;636553;-75
2024/01/09 11:27:24;;;;;;;194.40;96.00;;;;;;;-5.79;60.43;98761.75;104503;1269;96690;-75
2024/01/09 11:29:56;;;;;;;174.60;85.50;;;;;;;-5.70;61.12;98767.30;104436;1288;97301;-75
2024/01/09 11:32:30;;;;;;;188.70;88.70;;;;;;;-5.50;61.16;98770.98;104359;1269;100103;-75
2024/01/09 11:35:17;;;;;;;176.20;87.10;;;;;;;-5.34;60.96;98770.34;104924;1257;102139;-76
2024/01/09 11:37:48;;;;;;;180.10;87.50;;;;;;;-5.34;60.29;98768.61;104925;1257;277260;-75
2024/01/09 11:40:17;;;;;;;170.80;89.10;;;;;;;-5.45;60.11;98763.89;108756;1251;93709;-76
2024/01/09 11:42:46;;;;;;;176.60;87.10;;;;;;;-5.49;59.87;98755.67;108773;1251;94043;-76
2024/01/09 11:45:21;;;;;;;166.50;80.40;;;;;;;-5.54;59.82;98752.41;108759;1251;100114;-76
2024/01/09 11:47:50;;;;;;;160.90;81.50;;;;;;;-5.51;60.30;98750.13;107115;1256;100325;-76
2024/01/09 11:50:18;;;;;;;156.90;78.60;;;;;;;-5.28;60.84;98747.93;105214;1256;100701;-76
2024/01/09 11:52:48;;;;;;;162.70;82.30;;;;;;;-5.06;60.64;98744.23;105269;1252;96746;-75
2024/01/09 11:55:16;;;;;;;163.30;80.40;;;;;;;-4.93;59.32;98747.27;105168;1255;95824;-75
2024/01/09 11:57:44;;;;;;;150.30;73.30;;;;;;;-4.88;59.38;98745.93;105194;1266;101598;-75
2024/01/09 12:00:12;;;;;;;135.40;70.10;;;;;;;-4.80;58.76;98743.88;105255;1256;102177;-75
2024/01/09 12:02:40;;;;;;;143.20;68.10;;;;;;;-4.77;58.37;98743.70;105137;1251;98622;-75
2024/01/09 12:05:09;;;;;;;139.10;68.70;;;;;;;-4.78;58.40;98741.88;105354;1257;96750;-75
2024/01/09 12:07:39;;;;;;;147.30;72.20;;;;;;;-4.76;58.66;98743.48;105354;1257;96830;-75
2024/01/09 12:10:09;;;;;;;153.40;74.50;;;;;;;-4.68;59.21;98748.70;105071;1257;102458;-75
2024/01/09 12:12:36;;;;;;;158.40;77.00;;;;;;;-4.50;59.56;98742.27;105009;1257;102193;-75
2024/01/09 12:15:05;;;;;;;152.40;75.00;;;;;;;-4.37;59.51;98737.47;105025;1256;100657;-75
2024/01/09 12:17:34;;;;;;;144.50;71.10;;;;;;;-4.31;59.50;98732.01;105093;1253;95842;-75
2024/01/09 12:20:04;;;;;;;136.00;67.80;;;;;;;-4.29;59.07;98730.15;105174;1257;95924;-75
2024/01/09 12:22:33;;;;;;;142.80;71.40;;;;;;;-4.38;58.84;98733.48;105194;1251;101717;-75
2024/01/09 12:25:01;;;;;;;142.70;68.40;;;;;;;-4.42;59.20;98729.12;105089;1255;102095;-75
2024/01/09 12:27:30;;;;;;;142.60;65.70;;;;;;;-4.49;58.88;98731.64;105167;1258;100682;-76
2024/01/09 12:29:58;;;;;;;138.20;70.70;;;;;;;-4.66;58.13;98735.25;105101;1253;95990;-75
2024/01/09 12:32:26;;;;;;;142.10;72.10;;;;;;;-4.90;58.02;98739.02;105130;1257;95832;-75
2024/01/09 12:34:54;;;;;;;141.90;72.20;;;;;;;-5.03;58.46;98741.12;105122;1253;99931;-75
2024/01/09 12:37:22;;;;;;;164.80;78.50;;;;;;;-5.11;58.39;98737.86;105080;1256;100166;-75
2024/01/09 12:39:59;;;;;;;139.60;65.60;;;;;;;-5.14;59.11;98738.37;105150;1256;100403;-75
2024/01/09 12:42:28;;;;;;;149.60;73.80;;;;;;;-5.14;58.92;98735.77;105015;1267;95861;-75
2024/01/09 12:44:56;;;;;;;147.60;74.40;;;;;;;-5.20;58.83;98733.27;105075;1254;96658;-75
2024/01/09 12:47:26;;;;;;;162.10;77.90;;;;;;;-5.31;58.68;98733.70;105043;1256;101589;-75
2024/01/09 12:49:53;;;;;;;168.60;80.90;;;;;;;-5.39;58.97;98732.01;105059;1255;102187;-77
2024/01/09 12:52:22;;;;;;;170.30;81.60;;;;;;;-5.36;59.60;98730.98;105132;1255;100474;-75
2024/01/09 12:54:49;;;;;;;170.70;80.50;;;;;;;-5.33;59.59;98733.98;105085;1257;95934;-75
2024/01/09 12:57:17;;;;;;;188.60;94.40;;;;;;;-5.34;59.52;98731.90;105115;1256;96145;-75
2024/01/09 12:59:45;;;;;;;185.30;94.20;;;;;;;-5.28;59.14;98734.90;105076;1256;101524;-75
2024/01/09 13:02:12;;;;;;;160.60;81.90;;;;;;;-5.29;59.19;98732.36;105134;1257;102234;-75
2024/01/09 13:04:40;;;;;;;152.80;79.00;;;;;;;-5.23;59.53;98734.29;105236;1256;100715;-75
2024/01/09 13:07:08;;;;;;;148.10;73.70;;;;;;;-5.13;59.61;98734.82;105366;1269;95813;-75
2024/01/09 13:09:35;;;;;;;142.10;75.70;;;;;;;-5.08;59.42;98733.70;105230;1256;96752;-75
2024/01/09 13:12:04;;;;;;;141.40;72.20;;;;;;;-5.14;59.25;98732.23;105444;1256;99644;-75
2024/01/09 13:14:32;;;;;;;138.90;73.50;;;;;;;-5.24;59.07;98731.90;105435;1257;101979;-75
2024/01/09 13:16:59;;;;;;;151.30;80.10;;;;;;;-5.35;58.89;98732.83;105090;1256;100694;-75
2024/01/09 13:19:27;;;;;;;157.50;80.40;;;;;;;-5.47;58.84;98736.78;105085;1252;96808;-75
2024/01/09 13:21:55;;;;;;;162.40;83.90;;;;;;;-5.54;58.97;98739.27;105090;1256;96779;-75
2024/01/09 13:24:22;;;;;;;182.70;94.20;;;;;;;-5.54;59.29;98737.66;105163;1253;101876;-75
2024/01/09 13:26:50;;;;;;;151.60;79.60;;;;;;;-5.36;59.68;98735.36;105217;1257;100263;-75
2024/01/09 13:29:19;;;;;;;146.10;75.20;;;;;;;-5.09;59.95;98735.85;105148;1256;107406;-75
2024/01/09 13:31:46;;;;;;;155.00;76.50;;;;;;;-4.85;59.81;98731.52;105119;1254;96855;-75
2024/01/09 13:34:16;;;;;;;166.90;86.20;;;;;;;-4.61;59.73;98728.62;105059;1254;96458;-75
2024/01/09 13:36:44;;;;;;;160.40;82.60;;;;;;;-4.50;58.70;98733.28;105100;1256;99761;-75
2024/01/09 13:39:14;;;;;;;162.70;79.80;;;;;;;-4.62;57.71;98736.41;105124;1257;101797;-75
2024/01/09 13:41:42;;;;;;;155.10;79.10;;;;;;;-4.73;58.05;98739.33;105369;1256;99405;-75
2024/01/09 13:44:10;;;;;;;143.40;73.30;;;;;;;-4.82;58.09;98737.88;105506;1257;95917;-75
2024/01/09 13:46:38;;;;;;;137.90;71.40;;;;;;;-4.89;58.18;98737.04;105000;1257;97139;-75
2024/01/09 13:49:06;;;;;;;140.00;72.20;;;;;;;-4.91;58.32;98743.09;105126;1254;101704;-75
2024/01/09 13:51:33;;;;;;;145.70;73.00;;;;;;;-4.92;58.22;98739.13;105112;1255;102575;-75
2024/01/09 13:54:01;;;;;;;143.10;70.80;;;;;;;-4.93;58.42;98740.05;105035;1257;100446;-75
2024/01/09 13:56:31;;;;;;;139.10;69.80;;;;;;;-4.97;58.63;98740.47;105089;1257;96700;-75
2024/01/09 13:58:59;;;;;;;129.90;64.80;;;;;;;-5.05;58.62;98741.41;105148;1257;95918;-75
2024/01/09 14:01:28;;;;;;;138.90;70.40;;;;;;;-5.12;58.85;98738.61;105123;1256;101615;-75
2024/01/09 14:03:55;;;;;;;141.10;73.40;;;;;;;-5.29;58.67;98737.45;105230;1257;108396;-75
2024/01/09 14:06:25;;;;;;;143.30;71.20;;;;;;;-5.55;58.67;98740.56;105150;1258;100708;-75
2024/01/09 14:08:53;;;;;;;130.50;66.30;;;;;;;-5.72;58.90;98741.42;105015;1264;95857;-75
2024/01/09 14:11:20;;;;;;;110.60;55.30;;;;;;;-5.87;58.93;98742.19;105188;1256;96758;-75
2024/01/09 14:13:48;;;;;;;127.00;66.00;;;;;;;-5.99;58.94;98742.99;105185;1256;101479;-75
2024/01/09 14:16:16;;;;;;;165.60;86.00;;;;;;;-6.09;59.22;98747.52;105093;1257;102172;-75
2024/01/09 14:18:44;;;;;;;183.20;90.60;;;;;;;-6.20;59.31;98751.58;105156;1257;99388;-76
2024/01/09 14:21:12;;;;;;;219.50;107.10;;;;;;;-6.30;59.63;98752.06;105177;1256;96586;-76
2024/01/09 14:23:39;;;;;;;256.40;124.50;;;;;;;-6.35;59.65;98750.56;105083;1255;96986;-76
2024/01/09 14:26:07;;;;;;;258.40;120.90;;;;;;;-6.46;59.68;98750.73;105016;1256;98469;-76
2024/01/09 14:28:35;;;;;;;246.10;116.80;;;;;;;-6.55;59.88;98751.73;105058;1256;100424;-75
2024/01/09 14:31:03;;;;;;;243.20;119.90;;;;;;;-6.65;59.94;98749.22;105062;1256;100710;-76
2024/01/09 14:33:30;;;;;;;219.90;111.10;;;;;;;-6.78;60.06;98745.98;105091;1257;96331;-76
2024/01/09 14:36:00;;;;;;;213.10;108.70;;;;;;;-6.90;60.23;98746.86;105082;1257;96014;-76
2024/01/09 14:38:27;;;;;;;201.40;103.80;;;;;;;-7.02;60.44;98747.61;105100;1257;101625;-76
2024/01/09 14:40:57;;;;;;;210.70;107.50;;;;;;;-7.09;60.64;98746.89;105031;1254;102216;-76
2024/01/09 14:43:25;;;;;;;238.30;120.00;;;;;;;-7.15;60.59;98748.56;105073;1256;100579;-76
2024/01/09 14:45:53;;;;;;;235.60;119.00;;;;;;;-7.16;60.73;98749.83;105083;1266;96642;-76
2024/01/09 14:48:22;;;;;;;241.40;117.00;;;;;;;-7.24;60.44;98745.31;105264;1255;96817;-76
2024/01/09 14:50:50;;;;;;;253.60;121.60;;;;;;;-7.41;60.43;98745.55;105225;1255;101667;-76
2024/01/09 14:53:19;;;;;;;252.20;124.40;;;;;;;-7.54;60.58;98743.14;105078;1257;102062;-76
2024/01/09 14:55:47;;;;;;;268.80;136.60;;;;;;;-7.66;60.67;98746.98;105124;1258;100713;-76
2024/01/09 14:58:15;;;;;;;310.80;157.80;;;;;;;-7.81;60.66;98746.06;105327;1252;95806;-76
2024/01/09 15:00:43;;;;;;;344.80;172.70;;;;;;;-7.96;60.79;98745.32;105063;1257;95861;-76
2024/01/09 15:03:12;;;;;;;324.20;162.80;;;;;;;-8.02;61.11;98750.80;105111;1256;101728;-76
2024/01/09 15:05:40;;;;;;;312.70;155.80;;;;;;;-8.16;61.01;98755.55;105141;1257;101896;-76
2024/01/09 15:08:08;;;;;;;222.90;118.90;;;;;;;-8.28;61.06;98756.45;105118;1256;98372;-76
2024/01/09 15:10:36;;;;;;;233.50;120.20;;;;;;;-8.39;60.90;98758.13;105048;1258;95841;-76
2024/01/09 15:13:04;;;;;;;190.60;101.60;;;;;;;-8.55;60.87;98759.29;105137;1257;97099;-77
2024/01/09 15:15:31;;;;;;;173.90;96.00;;;;;;;-8.67;60.89;98760.10;105093;1258;99949;-76
2024/01/09 15:17:59;;;;;;;160.50;90.00;;;;;;;-8.75;60.75;98760.27;105094;1254;102280;-76
2024/01/09 15:20:27;;;;;;;163.90;93.80;;;;;;;-8.86;60.71;98764.34;105021;1254;100596;-76
2024/01/09 15:22:55;;;;;;;188.40;98.90;;;;;;;-8.95;60.75;98768.71;105060;1252;96736;-76
2024/01/09 15:25:24;;;;;;;174.50;96.30;;;;;;;-9.07;60.73;98767.95;105059;1256;95801;-76
2024/01/09 15:27:52;;;;;;;163.40;92.40;;;;;;;-9.20;60.77;98768.57;105086;1270;101436;-76
2024/01/09 15:30:19;;;;;;;165.90;94.40;;;;;;;-9.32;60.91;98770.25;105079;1256;102006;-76
2024/01/09 15:32:47;;;;;;;209.60;110.60;;;;;;;-9.45;60.78;98773.85;105089;1254;100647;-76
2024/01/09 15:35:15;;;;;;;194.70;107.10;;;;;;;-9.57;60.82;98772.21;105054;1257;96538;-76
2024/01/09 15:37:42;;;;;;;194.70;107.00;;;;;;;-9.63;61.17;98771.88;105066;1256;97160;-76
2024/01/09 15:40:13;;;;;;;200.80;112.80;;;;;;;-9.65;61.14;98772.85;105089;1267;109757;-76
2024/01/09 15:42:41;;;;;;;191.40;108.40;;;;;;;-9.71;61.18;98777.95;105054;1263;103172;-76
2024/01/09 15:45:13;;;;;;;183.50;105.30;;;;;;;-9.80;61.14;98780.33;105021;1257;100579;-76
2024/01/09 15:47:40;;;;;;;200.30;116.30;;;;;;;-9.88;61.20;98789.14;105125;1264;97454;-76
2024/01/09 15:50:09;;;;;;;214.80;119.80;;;;;;;-9.95;61.40;98789.73;105069;1256;97086;-76
2024/01/09 15:52:37;;;;;;;203.90;123.60;;;;;;;-9.99;61.53;98788.80;105137;1257;101059;-76
2024/01/09 15:55:05;;;;;;;217.80;117.20;;;;;;;-10.06;61.49;98791.31;105102;1255;109508;-76
2024/01/09 15:57:33;;;;;;;202.30;120.20;;;;;;;-10.17;61.48;98792.21;105135;1253;108390;-77
2024/01/09 16:00:02;;;;;;;220.20;115.10;;;;;;;-10.24;61.50;98795.75;105093;1254;97843;-76
2024/01/09 16:02:30;;;;;;;221.70;117.70;;;;;;;-10.28;61.72;98796.77;105261;1256;98259;-76
2024/01/09 16:04:57;;;;;;;222.20;128.30;;;;;;;-10.30;61.67;98796.84;105089;1254;109288;-76
2024/01/09 16:07:26;;;;;;;245.00;122.30;;;;;;;-10.34;61.65;98801.66;105050;1254;102243;-76
2024/01/09 16:09:55;;;;;;;227.10;124.40;;;;;;;-10.43;61.72;98803.69;105079;1257;107884;-76
2024/01/09 16:12:23;;;;;;;228.80;116.10;;;;;;;-10.51;61.52;98804.81;105090;1254;97353;-76
2024/01/09 16:14:51;;;;;;;227.40;117.70;;;;;;;-10.62;61.56;98808.64;105083;1256;96987;-76
2024/01/09 16:17:20;;;;;;;237.10;115.20;;;;;;;-10.74;61.76;98809.02;105091;1256;109507;-76
2024/01/09 16:19:48;;;;;;;244.80;117.50;;;;;;;-10.83;61.78;98810.14;105190;1256;109260;-76
2024/01/09 16:22:18;;;;;;;245.80;119.40;;;;;;;-10.89;61.71;98812.08;105022;1257;107611;-76
2024/01/09 16:24:46;;;;;;;254.30;125.20;;;;;;;-10.97;61.68;98811.62;105080;1275;96545;-76
2024/01/09 16:27:14;;;;;;;257.40;124.80;;;;;;;-11.05;61.80;98813.23;105291;1256;97122;-76
2024/01/09 16:29:41;;;;;;;252.70;137.60;;;;;;;-11.14;61.82;98814.02;105199;1256;110111;-76
2024/01/09 16:32:09;;;;;;;261.40;129.50;;;;;;;-11.18;61.95;98814.32;105040;1257;110486;-76
2024/01/09 16:34:37;;;;;;;280.30;135.70;;;;;;;-11.26;62.04;98811.61;105046;1257;107690;-76
2024/01/09 16:37:04;;;;;;;256.20;142.90;;;;;;;-11.34;62.06;98815.64;105042;1275;96625;-76
2024/01/09 16:39:32;;;;;;;276.70;130.90;;;;;;;-11.39;62.04;98813.33;105127;1267;96974;-76
2024/01/09 16:42:00;;;;;;;292.30;135.80;;;;;;;-11.46;62.24;98816.66;105037;1257;110707;-76
2024/01/09 16:44:28;;;;;;;272.60;132.20;;;;;;;-11.54;62.39;98812.36;105030;1260;108811;-76
2024/01/09 16:46:55;;;;;;;281.70;132.70;;;;;;;-11.58;62.36;98811.60;105039;1267;101333;-77
2024/01/09 16:49:23;;;;;;;277.70;132.20;;;;;;;-11.68;62.26;98820.91;105013;1257;96545;-76
2024/01/09 16:51:51;;;;;;;259.60;132.40;;;;;;;-11.80;62.49;98824.02;105036;1256;98540;-76
2024/01/09 16:54:19;;;;;;;278.30;129.30;;;;;;;-11.87;62.35;98819.00;105129;1256;109989;-76
2024/01/09 16:56:47;;;;;;;276.10;127.90;;;;;;;-11.93;62.41;98821.23;105060;1257;108807;-76
2024/01/09 16:59:14;;;;;;;264.90;130.70;;;;;;;-12.00;62.51;98822.48;105089;1256;108433;-76
2024/01/09 17:01:43;;;;;;;277.00;128.80;;;;;;;-12.05;62.45;98824.99;105061;1264;96517;-76
2024/01/09 17:04:11;;;;;;;274.40;125.70;;;;;;;-12.08;62.51;98824.90;105060;1257;97242;-76
2024/01/09 17:06:39;;;;;;;291.60;136.60;;;;;;;-12.14;62.61;98835.48;105146;1254;110272;-76
2024/01/09 17:09:07;;;;;;;289.90;137.30;;;;;;;-12.22;62.58;98834.13;105299;1256;108082;-76
2024/01/09 17:11:41;;;;;;;326.40;183.50;;;;;;;-12.31;62.61;98836.58;105282;1253;100673;-76
2024/01/09 17:14:09;;;;;;;378.90;173.10;;;;;;;-12.39;62.61;98834.52;105062;1256;97533;-76
2024/01/09 17:16:44;;;;;;;377.30;169.90;;;;;;;-12.41;62.84;98835.09;105093;1254;97013;-76
2024/01/09 17:19:14;;;;;;;393.30;195.30;;;;;;;-12.42;62.81;98838.90;105213;1264;102886;-75
2024/01/09 17:21:41;;;;;;;416.50;201.70;;;;;;;-12.46;62.85;98834.17;105158;1256;111268;-76
2024/01/09 17:24:09;;;;;;;430.00;202.60;;;;;;;-12.54;62.89;98833.31;105224;1256;105844;-76
2024/01/09 17:26:36;;;;;;;442.50;210.70;;;;;;;-12.61;63.10;98834.34;105138;1256;96768;-77
2024/01/09 17:29:04;;;;;;;490.20;235.40;;;;;;;-12.62;63.05;98835.41;105255;1256;97076;-76
2024/01/09 17:31:32;;;;;;;463.10;226.50;;;;;;;-12.63;63.19;98830.39;105256;1256;110032;-76
2024/01/09 17:34:01;;;;;;;467.40;219.80;;;;;;;-12.62;63.24;98831.08;105190;1257;110049;-76
2024/01/09 17:36:29;;;;;;;472.50;222.70;;;;;;;-12.63;63.41;98829.52;105340;1256;108558;-76
2024/01/09 17:38:56;;;;;;;486.90;236.70;;;;;;;-12.65;63.08;98832.36;105186;1254;96657;-76
2024/01/09 17:41:24;;;;;;;436.40;262.80;;;;;;;-12.71;63.26;98834.41;105208;1256;97086;-76
2024/01/09 17:43:52;;;;;;;504.80;258.10;;;;;;;-12.78;63.29;98834.89;105219;1272;109469;-76
2024/01/09 17:46:20;;;;;;;519.70;264.80;;;;;;;-12.85;63.39;98833.48;105291;1256;110000;-76
2024/01/09 17:48:47;;;;;;;428.80;212.80;;;;;;;-12.88;63.48;98837.19;105391;1256;107037;-76
2024/01/09 17:51:15;;;;;;;370.70;178.20;;;;;;;-12.92;63.39;98831.20;105382;1266;97108;-76
2024/01/09 17:53:43;;;;;;;360.20;168.60;;;;;;;-12.98;63.29;98829.61;105200;1256;97016;-76
2024/01/09 17:56:11;;;;;;;334.90;191.90;;;;;;;-13.07;63.16;98833.44;105030;1254;103198;-76
2024/01/09 17:58:39;;;;;;;404.40;195.10;;;;;;;-13.14;63.10;98833.08;105055;1255;102004;-76
2024/01/09 18:01:07;;;;;;;425.60;215.90;;;;;;;-13.23;63.13;98833.11;105134;1257;107235;-76
2024/01/09 18:03:35;;;;;;;451.80;217.70;;;;;;;-13.28;63.24;98831.64;105192;1275;96532;-76
2024/01/09 18:06:02;;;;;;;456.30;217.10;;;;;;;-13.31;63.47;98829.98;105189;1254;97064;-77
2024/01/09 18:08:30;;;;;;;458.10;216.10;;;;;;;-13.33;63.66;98831.06;105046;1257;109607;-76
2024/01/09 18:11:01;;;;;;;452.80;216.30;;;;;;;-13.34;63.60;98834.55;105048;1265;109923;-76
2024/01/09 18:13:30;;;;;;;448.90;257.30;;;;;;;-13.37;63.42;98832.19;105016;1256;107630;-76
2024/01/09 18:15:58;;;;;;;506.50;235.40;;;;;;;-13.40;63.68;98831.54;105191;1271;96549;-76
2024/01/09 18:18:28;;;;;;;485.30;233.70;;;;;;;-13.44;63.71;98838.39;105057;1257;97102;-76
2024/01/09 18:20:56;;;;;;;519.60;244.60;;;;;;;-13.48;63.60;98840.17;105043;1264;110062;-76
2024/01/09 18:23:24;;;;;;;509.00;232.90;;;;;;;-13.53;63.46;98840.96;105214;1256;110116;-76
2024/01/09 18:25:51;;;;;;;488.40;228.70;;;;;;;-13.59;63.50;98840.73;105342;1257;100716;-76
2024/01/09 18:28:21;;;;;;;490.30;230.80;;;;;;;-13.68;63.49;98842.65;105356;1255;96549;-76
2024/01/09 18:30:49;;;;;;;460.30;228.70;;;;;;;-13.72;63.52;98844.44;105323;1255;97759;-76
2024/01/09 18:33:18;;;;;;;477.80;214.80;;;;;;;-13.73;63.65;98844.11;105243;1254;111402;-76
2024/01/09 18:35:46;;;;;;;468.30;223.90;;;;;;;-13.73;63.68;98844.30;105080;1269;109454;-77
2024/01/09 18:38:14;;;;;;;554.50;257.40;;;;;;;-13.76;63.54;98840.02;105097;1266;107923;-76
2024/01/09 18:40:42;;;;;;;544.90;255.80;;;;;;;-13.81;63.76;98841.50;105131;1257;97521;-76
2024/01/09 18:43:09;;;;;;;535.20;246.70;;;;;;;-13.85;63.82;98839.83;105224;1266;96552;-76
2024/01/09 18:45:37;;;;;;;529.50;241.50;;;;;;;-13.89;63.73;98837.31;105063;1270;102405;-75
2024/01/09 18:48:13;;;;;;;546.30;254.60;;;;;;;-13.93;63.60;98831.52;105160;1270;109203;-75
2024/01/09 18:50:44;;;;;;;571.70;279.60;;;;;;;-13.97;63.65;98828.96;105048;1269;100616;-76
2024/01/09 18:53:15;;;;;;;581.70;271.00;;;;;;;-13.99;63.87;98826.58;105268;1255;96626;-76
2024/01/09 18:55:44;;;;;;;573.10;269.80;;;;;;;-14.02;63.70;98829.59;105276;1256;96506;-76
2024/01/09 18:58:11;;;;;;;590.10;274.50;;;;;;;-14.08;63.83;98829.33;105127;1254;109995;-76
2024/01/09 19:00:39;;;;;;;587.90;283.20;;;;;;;-14.12;63.77;98832.19;105075;1271;108677;-76
2024/01/09 19:03:08;;;;;;;582.20;275.90;;;;;;;-14.15;63.74;98833.28;105034;1257;107573;-76
2024/01/09 19:05:36;;;;;;;581.80;278.10;;;;;;;-14.17;63.88;98834.35;105112;1275;97854;-77
2024/01/09 19:08:05;;;;;;;574.10;294.50;;;;;;;-14.20;64.03;98838.54;105070;1257;97002;-76
2024/01/09 19:10:32;;;;;;;593.10;284.30;;;;;;;-14.22;64.17;98838.55;105069;1256;111202;-77
2024/01/09 19:13:00;;;;;;;621.10;312.90;;;;;;;-14.25;64.13;98837.23;105266;1267;108723;-76
2024/01/09 19:15:28;;;;;;;648.30;319.60;;;;;;;-14.27;64.13;98844.19;105301;1255;109329;-76
2024/01/09 19:17:57;;;;;;;653.60;333.50;;;;;;;-14.29;64.14;98844.05;105173;1268;96564;-76
2024/01/09 19:20:25;;;;;;;644.20;325.50;;;;;;;-14.29;64.16;98846.13;105111;1256;97083;-76
2024/01/09 19:22:55;;;;;;;648.80;322.30;;;;;;;-14.31;64.10;98841.99;105123;1258;109820;-75
2024/01/09 19:25:26;;;;;;;677.70;326.80;;;;;;;-14.35;63.91;98843.95;105070;1266;107294;-76
2024/01/09 19:27:54;;;;;;;514.30;247.70;;;;;;;-14.39;64.03;98846.30;105226;1267;100075;-76
2024/01/09 19:30:22;;;;;;;686.40;323.80;;;;;;;-14.44;63.91;98847.42;105009;1257;96760;-76
2024/01/09 19:32:50;;;;;;;717.20;339.60;;;;;;;-14.49;63.97;98847.00;105028;1254;97087;-77
2024/01/09 19:35:18;;;;;;;724.10;341.30;;;;;;;-14.54;63.93;98851.55;105050;1256;110879;-76
2024/01/09 19:37:46;;;;;;;735.00;345.40;;;;;;;-14.58;64.02;98852.13;105085;1256;108974;-75
2024/01/09 19:40:14;;;;;;;743.00;354.40;;;;;;;-14.62;64.07;98855.48;105019;1266;107451;-77
2024/01/09 19:42:42;;;;;;;727.60;358.50;;;;;;;-14.64;64.13;98858.45;105480;1255;97861;-76
2024/01/09 19:45:10;;;;;;;710.70;348.20;;;;;;;-14.65;64.24;98855.70;105036;1256;97919;-77
2024/01/09 19:47:38;;;;;;;691.70;346.60;;;;;;;-14.66;64.40;98855.37;105119;1256;110211;-76
2024/01/09 19:50:07;;;;;;;725.20;337.60;;;;;;;-14.68;64.42;98856.08;105167;1257;108999;-75
2024/01/09 19:52:36;;;;;;;730.30;333.20;;;;;;;-14.69;64.35;98857.48;105078;1256;107890;-75
2024/01/09 19:55:05;;;;;;;665.60;307.30;;;;;;;-14.73;64.32;98861.16;105047;1265;96554;-75
2024/01/09 19:57:33;;;;;;;625.50;285.10;;;;;;;-14.76;64.39;98865.36;105082;1257;97048;-75
2024/01/09 20:00:00;;;;;;;629.20;262.00;;;;;;;-14.78;64.31;98866.42;105115;1254;109243;-77
2024/01/09 20:02:29;;;;;;;582.80;247.80;;;;;;;-14.80;64.36;98866.44;105309;1256;109636;-75
2024/01/09 20:04:57;;;;;;;625.40;267.00;;;;;;;-14.83;64.39;98867.01;105319;1255;109892;-76
2024/01/09 20:07:27;;;;;;;629.90;294.60;;;;;;;-14.84;64.52;98867.52;105151;1255;97480;-76
2024/01/09 20:09:55;;;;;;;629.90;277.40;;;;;;;-14.86;64.34;98869.13;105372;1254;97090;-75
2024/01/09 20:12:23;;;;;;;706.30;288.70;;;;;;;-14.88;64.43;98867.79;105174;1257;108350;-77
2024/01/09 20:14:51;;;;;;;612.80;259.60;;;;;;;-14.91;64.43;98868.85;105217;1255;110329;-75
2024/01/09 20:17:20;;;;;;;651.70;270.20;;;;;;;-14.93;64.46;98871.28;105093;1257;107472;-77
2024/01/09 20:19:49;;;;;;;619.60;268.80;;;;;;;-14.93;64.66;98873.36;105049;1257;96644;-75
2024/01/09 20:22:17;;;;;;;614.20;278.90;;;;;;;-14.96;64.65;98871.13;105111;1256;97045;-75
2024/01/09 20:24:45;;;;;;;623.70;289.20;;;;;;;-14.97;64.65;98872.54;105098;1264;111348;-75
2024/01/09 20:27:13;;;;;;;609.60;278.20;;;;;;;-14.98;64.70;98874.13;105308;1270;109236;-77
2024/01/09 20:29:43;;;;;;;624.90;298.00;;;;;;;-15.04;64.59;98872.29;105246;1257;101207;-76
2024/01/09 20:32:11;;;;;;;629.20;305.90;;;;;;;-15.08;64.73;98876.30;105146;1257;96538;-76
2024/01/09 20:34:38;;;;;;;650.10;314.10;;;;;;;-15.07;64.90;98875.94;105315;1265;97096;-75
2024/01/09 20:37:06;;;;;;;730.50;346.20;;;;;;;-15.07;64.87;98877.15;105215;1257;110401;-75
2024/01/09 20:39:34;;;;;;;748.80;343.50;;;;;;;-15.10;64.82;98876.86;105066;1256;108709;-75
2024/01/09 20:42:04;;;;;;;744.10;341.60;;;;;;;-15.11;64.95;98878.79;105437;1256;108935;-76
2024/01/09 20:44:32;;;;;;;730.20;338.90;;;;;;;-15.13;64.80;98876.91;105174;1257;97457;-76
2024/01/09 20:46:59;;;;;;;703.70;324.80;;;;;;;-15.17;64.88;98876.24;105179;1257;96982;-75
2024/01/09 20:49:27;;;;;;;722.20;329.80;;;;;;;-15.17;64.88;98874.34;105093;1265;109557;-76
2024/01/09 20:51:55;;;;;;;717.50;329.50;;;;;;;-15.18;65.04;98869.18;105206;1261;109180;-77
2024/01/09 20:54:24;;;;;;;687.20;316.40;;;;;;;-15.19;65.07;98867.11;105063;1257;107839;-75
2024/01/09 20:56:51;;;;;;;617.80;278.70;;;;;;;-15.20;64.99;98863.67;105093;1262;96824;-77
2024/01/09 20:59:19;;;;;;;612.90;269.70;;;;;;;-15.22;65.11;98863.04;105036;1265;97165;-76
2024/01/09 21:01:47;;;;;;;595.50;266.20;;;;;;;-15.22;65.11;98861.48;105025;1257;110789;-77
2024/01/09 21:04:14;;;;;;;608.60;269.40;;;;;;;-15.23;65.00;98860.11;105121;1263;102052;-76
2024/01/09 21:06:49;;;;;;;595.00;254.20;;;;;;;-15.29;64.97;98854.98;105319;1255;107122;-75
2024/01/09 21:09:17;;;;;;;540.30;227.30;;;;;;;-15.32;65.03;98853.81;105113;1265;96533;-75
2024/01/09 21:11:45;;;;;;;541.70;211.00;;;;;;;-15.35;65.01;98854.55;105136;1257;97089;-75
2024/01/09 21:14:12;;;;;;;494.90;199.40;;;;;;;-15.37;65.05;98851.98;105361;1266;109847;-76
2024/01/09 21:16:40;;;;;;;456.60;193.20;;;;;;;-15.40;65.05;98846.67;105174;1263;108801;-75
2024/01/09 21:19:08;;;;;;;437.20;182.80;;;;;;;-15.43;65.10;98844.63;105062;1275;107891;-75
2024/01/09 21:21:36;;;;;;;436.30;172.70;;;;;;;-15.47;65.00;98842.61;105089;1267;97771;-78
2024/01/09 21:24:04;;;;;;;443.20;177.90;;;;;;;-15.50;65.09;98837.81;105057;1255;97105;-75
2024/01/09 21:26:31;;;;;;;444.90;186.20;;;;;;;-15.52;65.01;98839.55;105153;1261;108903;-76
2024/01/09 21:29:00;;;;;;;437.00;184.50;;;;;;;-15.55;65.11;98840.83;105064;1264;109074;-76
2024/01/09 21:31:31;;;;;;;447.70;192.90;;;;;;;-15.59;65.22;98843.65;105210;1266;108313;-77
2024/01/09 21:33:58;;;;;;;359.20;156.00;;;;;;;-15.58;65.28;98842.77;105394;1264;97367;-77
2024/01/09 21:36:29;;;;;;;447.50;195.00;;;;;;;-15.59;65.36;98844.00;105370;1257;96984;-76
2024/01/09 21:38:56;;;;;;;464.60;200.40;;;;;;;-15.59;65.37;98845.37;108696;1251;109726;-76
2024/01/09 21:41:24;;;;;;;470.50;207.90;;;;;;;-15.60;65.62;98841.77;105911;1255;108709;-77
2024/01/09 21:43:52;;;;;;;473.00;211.70;;;;;;;-15.61;65.46;98847.46;105113;1256;108101;-76
2024/01/09 21:46:19;;;;;;;454.40;211.80;;;;;;;-15.64;65.27;98849.91;105135;1265;96534;-76
2024/01/09 21:48:48;;;;;;;447.60;207.10;;;;;;;-15.70;65.23;98852.04;105123;1264;97086;-76
2024/01/09 21:51:17;;;;;;;463.10;202.20;;;;;;;-15.72;65.37;98847.42;105169;1257;109364;-75
2024/01/09 21:53:45;;;;;;;463.60;206.00;;;;;;;-15.76;65.21;98843.13;105440;1257;110141;-75
2024/01/09 21:56:13;;;;;;;448.00;198.10;;;;;;;-15.79;65.43;98839.88;105411;1264;107503;-75
2024/01/09 21:58:42;;;;;;;453.40;199.10;;;;;;;-15.79;65.46;98841.25;105254;1266;96613;-77
2024/01/09 22:01:10;;;;;;;460.00;206.70;;;;;;;-15.80;65.53;98843.33;105228;1267;97076;-76
2024/01/09 22:03:37;;;;;;;547.10;235.50;;;;;;;-15.81;65.55;98838.68;105341;1256;109705;-76
2024/01/09 22:06:05;;;;;;;546.00;247.90;;;;;;;-15.80;65.43;98847.65;105222;1265;108775;-77
2024/01/09 22:08:33;;;;;;;506.80;218.20;;;;;;;-15.84;65.37;98844.08;105089;1258;107521;-75
2024/01/09 22:11:01;;;;;;;518.00;219.90;;;;;;;-15.84;65.53;98843.58;105063;1264;96625;-76
2024/01/09 22:13:29;;;;;;;566.00;238.40;;;;;;;-15.82;65.62;98835.79;105115;1255;97098;-77
2024/01/09 22:15:56;;;;;;;566.20;241.80;;;;;;;-15.84;65.70;98837.70;105108;1257;109745;-77